Time;durP1;ratioP1;P1;durP2;ratioP2;P2;SDS_P1;SDS_P2;PMS_P1;PMS_P2;Temp;Humidity;BMP_temperature;BMP_pressure;BME280_temperature;BME280_humidity;BME280_pressure;Samples;Min_cycle;Max_cycle;Signal;HPM_P1;HPM_P2
2023/08/29 00:00:59;;;;;;;0.00;0.00;;;15.20;99.90;;;;;;5041000;28;20017;-78
2023/08/29 00:03:28;;;;;;;0.00;0.00;;;15.10;99.90;;;;;;5044856;28;20106;-75
2023/08/29 00:06:04;;;;;;;0.00;0.00;;;15.00;99.90;;;;;;5041735;28;20021;-75
2023/08/29 00:08:30;;;;;;;2.30;0.55;;;14.90;99.90;;;;;;5040940;28;20504;-77
2023/08/29 00:10:58;;;;;;;0.00;0.00;;;14.90;99.90;;;;;;5038942;28;20043;-76
2023/08/29 00:13:24;;;;;;;0.10;0.10;;;14.80;99.90;;;;;;5042283;28;20084;-78
2023/08/29 00:15:50;;;;;;;0.00;0.00;;;14.80;99.90;;;;;;5038516;28;20396;-75
2023/08/29 00:18:16;;;;;;;0.10;0.10;;;14.80;99.90;;;;;;5037453;28;20509;-79
2023/08/29 00:20:43;;;;;;;0.00;0.00;;;14.80;99.90;;;;;;5055453;28;20083;-77
2023/08/29 00:23:09;;;;;;;0.00;0.00;;;14.90;99.90;;;;;;5041152;28;20191;-76
2023/08/29 00:25:35;;;;;;;0.00;0.00;;;15.00;99.90;;;;;;5039816;28;20033;-77
2023/08/29 00:28:01;;;;;;;0.00;0.00;;;15.00;99.90;;;;;;5041916;28;20035;-75
2023/08/29 00:30:26;;;;;;;0.00;0.00;;;15.00;99.90;;;;;;5039859;28;20045;-78
2023/08/29 00:32:52;;;;;;;0.00;0.00;;;15.00;99.90;;;;;;5041683;28;20044;-76
2023/08/29 00:35:18;;;;;;;0.00;0.00;;;14.90;99.90;;;;;;5039642;28;20395;-75
2023/08/29 00:37:44;;;;;;;0.00;0.00;;;14.90;99.90;;;;;;5042945;28;20475;-76
2023/08/29 00:40:10;;;;;;;0.00;0.00;;;14.80;99.90;;;;;;5045692;28;20048;-77
2023/08/29 00:42:36;;;;;;;0.00;0.00;;;14.80;99.90;;;;;;5045489;28;20024;-74
2023/08/29 00:45:02;;;;;;;2.10;0.77;;;14.70;99.90;;;;;;5046055;28;20021;-80
2023/08/29 00:47:28;;;;;;;0.00;0.00;;;14.70;99.90;;;;;;5043964;28;20749;-77
2023/08/29 00:49:54;;;;;;;0.00;0.00;;;14.80;99.90;;;;;;5045533;28;20583;-77
2023/08/29 00:52:20;;;;;;;0.00;0.00;;;14.80;99.90;;;;;;5044981;28;20296;-74
2023/08/29 00:54:46;;;;;;;0.47;0.47;;;14.60;99.90;;;;;;5045765;28;20032;-76
2023/08/29 00:57:12;;;;;;;0.00;0.00;;;14.60;99.90;;;;;;5043861;28;20079;-75
2023/08/29 00:59:38;;;;;;;0.00;0.00;;;14.50;99.90;;;;;;5044271;28;20311;-78
2023/08/29 01:02:04;;;;;;;0.00;0.00;;;14.50;99.90;;;;;;5044990;28;21126;-79
2023/08/29 01:04:30;;;;;;;0.00;0.00;;;14.60;99.90;;;;;;5043728;28;20040;-80
2023/08/29 01:06:57;;;;;;;0.00;0.00;;;14.60;99.90;;;;;;5045508;28;20029;-75
2023/08/29 01:09:23;;;;;;;0.00;0.00;;;14.60;99.90;;;;;;5043892;28;20037;-76
2023/08/29 01:11:57;;;;;;;0.00;0.00;;;14.60;99.90;;;;;;5044982;28;20037;-77
2023/08/29 01:14:59;;;;;;;0.00;0.00;;;14.60;99.90;;;;;;5045527;28;20082;-74
2023/08/29 01:17:48;;;;;;;0.30;0.30;;;14.50;99.90;;;;;;5019634;28;20865;-75
2023/08/29 01:20:16;;;;;;;0.00;0.00;;;14.50;99.90;;;;;;5042016;28;20583;-76
2023/08/29 01:23:01;;;;;;;0.00;0.00;;;14.40;99.90;;;;;;5043861;28;20047;-76
2023/08/29 01:25:54;;;;;;;0.00;0.00;;;14.40;99.90;;;;;;5044371;28;20051;-75
2023/08/29 01:28:21;;;;;;;0.00;0.00;;;14.40;99.90;;;;;;5044344;28;20146;-76
2023/08/29 01:30:48;;;;;;;0.00;0.00;;;14.40;99.90;;;;;;5044037;28;20063;-77
2023/08/29 01:33:14;;;;;;;0.00;0.00;;;14.40;99.90;;;;;;5044177;28;20505;-76
2023/08/29 01:35:46;;;;;;;0.00;0.00;;;14.40;99.90;;;;;;5045221;28;20040;-76
2023/08/29 01:38:13;;;;;;;0.00;0.00;;;14.30;99.90;;;;;;5044243;28;20029;-75
2023/08/29 01:40:39;;;;;;;0.20;0.20;;;14.30;99.90;;;;;;5042755;28;20033;-74
2023/08/29 01:43:05;;;;;;;0.00;0.00;;;14.20;99.90;;;;;;5042967;28;20076;-76
2023/08/29 01:45:30;;;;;;;0.20;0.20;;;14.10;99.90;;;;;;5040196;28;20052;-76
2023/08/29 01:47:56;;;;;;;0.00;0.00;;;13.90;99.90;;;;;;5042575;28;20752;-76
2023/08/29 01:50:22;;;;;;;0.20;0.20;;;13.90;99.90;;;;;;5042742;28;20036;-73
2023/08/29 01:52:49;;;;;;;0.00;0.00;;;13.90;99.90;;;;;;5043165;28;20033;-75
2023/08/29 01:55:15;;;;;;;0.00;0.00;;;13.80;99.90;;;;;;5043824;28;20037;-78
2023/08/29 01:57:43;;;;;;;0.10;0.10;;;13.80;99.90;;;;;;5043089;28;20047;-77
2023/08/29 02:00:09;;;;;;;0.10;0.10;;;13.80;99.90;;;;;;5039668;28;20035;-77
2023/08/29 02:02:35;;;;;;;0.00;0.00;;;13.70;99.90;;;;;;5045000;28;20017;-76
2023/08/29 02:05:01;;;;;;;0.00;0.00;;;13.70;99.90;;;;;;5043250;28;20044;-75
2023/08/29 02:07:26;;;;;;;0.00;0.00;;;13.80;99.90;;;;;;5041947;28;20745;-77
2023/08/29 02:09:52;;;;;;;0.07;0.07;;;13.80;99.90;;;;;;5042534;28;20509;-75
2023/08/29 02:12:18;;;;;;;0.10;0.10;;;13.90;99.90;;;;;;5042471;28;20041;-78
2023/08/29 02:14:43;;;;;;;0.00;0.00;;;13.90;99.90;;;;;;5042387;28;20033;-78
2023/08/29 02:17:09;;;;;;;0.00;0.00;;;13.90;99.90;;;;;;5043209;28;20062;-76
2023/08/29 02:19:35;;;;;;;0.32;0.30;;;13.80;99.90;;;;;;5039657;28;20061;-76
2023/08/29 02:22:00;;;;;;;0.00;0.00;;;13.90;99.90;;;;;;5041451;28;20545;-76
2023/08/29 02:24:27;;;;;;;0.10;0.10;;;13.90;99.90;;;;;;5038661;28;20074;-77
2023/08/29 02:26:53;;;;;;;;;;;13.90;99.90;;;;;;5041538;28;20055;-76
2023/08/29 02:29:19;;;;;;;0.00;0.00;;;13.90;99.90;;;;;;5042217;28;20755;-77
2023/08/29 02:31:45;;;;;;;0.10;0.10;;;13.90;99.90;;;;;;5042126;28;20036;-76
2023/08/29 02:34:11;;;;;;;0.00;0.00;;;13.90;99.90;;;;;;5043151;28;20057;-75
2023/08/29 02:36:36;;;;;;;0.00;0.00;;;13.80;99.90;;;;;;5041486;28;20036;-75
2023/08/29 02:39:02;;;;;;;0.10;0.10;;;13.80;99.90;;;;;;5041961;28;20025;-75
2023/08/29 02:41:28;;;;;;;0.05;0.05;;;13.80;99.90;;;;;;5041799;28;20060;-76
2023/08/29 02:43:54;;;;;;;0.10;0.10;;;13.90;99.90;;;;;;5041470;28;20025;-77
2023/08/29 02:46:21;;;;;;;0.00;0.00;;;13.90;99.90;;;;;;5041357;28;20082;-78
2023/08/29 02:48:46;;;;;;;0.10;0.10;;;13.80;99.90;;;;;;5048870;28;20036;-75
2023/08/29 02:51:12;;;;;;;0.00;0.00;;;13.90;99.90;;;;;;5038608;28;20067;-75
2023/08/29 02:53:38;;;;;;;0.00;0.00;;;13.90;99.90;;;;;;5043342;28;20538;-75
2023/08/29 02:56:03;;;;;;;0.00;0.00;;;13.80;99.90;;;;;;5039869;28;20098;-75
2023/08/29 02:58:29;;;;;;;0.00;0.00;;;13.80;99.90;;;;;;5043035;28;20380;-76
2023/08/29 03:00:56;;;;;;;0.00;0.00;;;13.80;99.90;;;;;;5043455;28;20491;-78
2023/08/29 03:03:23;;;;;;;0.00;0.00;;;13.80;99.90;;;;;;5045277;28;20524;-76
2023/08/29 03:05:56;;;;;;;0.00;0.00;;;13.80;99.90;;;;;;5041866;28;20031;-77
2023/08/29 03:08:22;;;;;;;0.00;0.00;;;13.70;99.90;;;;;;5038677;28;20439;-76
2023/08/29 03:10:52;;;;;;;0.00;0.00;;;13.70;99.90;;;;;;5041376;28;20597;-76
2023/08/29 03:13:18;;;;;;;0.00;0.00;;;13.80;99.90;;;;;;5046155;28;20037;-77
2023/08/29 03:15:45;;;;;;;0.00;0.00;;;13.70;99.90;;;;;;5042846;28;20021;-75
2023/08/29 03:18:10;;;;;;;;;;;13.80;99.90;;;;;;5045671;28;20025;-76
2023/08/29 03:20:42;;;;;;;0.08;0.08;;;13.60;99.90;;;;;;5044955;28;20664;-75
2023/08/29 03:23:09;;;;;;;0.10;0.10;;;13.60;99.90;;;;;;5042724;28;20044;-76
2023/08/29 03:25:34;;;;;;;0.00;0.00;;;13.60;99.90;;;;;;5042931;28;20021;-75
2023/08/29 03:28:00;;;;;;;0.00;0.00;;;13.80;99.90;;;;;;5043515;28;20037;-75
2023/08/29 03:30:26;;;;;;;0.10;0.10;;;13.80;99.90;;;;;;5042981;28;20028;-79
2023/08/29 03:32:52;;;;;;;0.00;0.00;;;13.80;99.90;;;;;;5045392;28;20036;-74
2023/08/29 03:35:19;;;;;;;0.10;0.10;;;13.80;99.90;;;;;;5044568;28;20021;-79
2023/08/29 03:37:45;;;;;;;0.00;0.00;;;13.70;99.90;;;;;;5039597;28;20033;-77
2023/08/29 03:40:12;;;;;;;0.08;0.08;;;13.70;99.90;;;;;;5042491;28;20115;-78
2023/08/29 03:42:38;;;;;;;0.00;0.00;;;13.60;99.90;;;;;;5041956;28;20463;-78
2023/08/29 03:45:04;;;;;;;0.10;0.10;;;13.60;99.90;;;;;;5042654;28;20025;-76
2023/08/29 03:47:33;;;;;;;0.10;0.10;;;13.60;99.90;;;;;;5039597;28;20800;-77
2023/08/29 03:49:59;;;;;;;0.30;0.30;;;13.50;99.90;;;;;;5041297;28;20112;-79
2023/08/29 03:52:26;;;;;;;0.10;0.10;;;13.50;99.90;;;;;;5040523;28;20044;-76
2023/08/29 03:54:58;;;;;;;0.00;0.00;;;13.50;99.90;;;;;;5041666;28;20805;-78
2023/08/29 03:57:26;;;;;;;0.00;0.00;;;13.50;99.90;;;;;;5040935;28;20653;-79
2023/08/29 03:59:52;;;;;;;0.08;0.08;;;13.40;99.90;;;;;;5039216;28;20875;-79
2023/08/29 04:02:18;;;;;;;0.00;0.00;;;13.40;99.90;;;;;;5038908;28;20033;-80
2023/08/29 04:04:44;;;;;;;0.03;0.03;;;13.50;99.90;;;;;;5032803;28;20025;-78
2023/08/29 04:07:12;;;;;;;0.00;0.00;;;13.40;99.90;;;;;;5040220;28;20037;-75
2023/08/29 04:09:40;;;;;;;0.00;0.00;;;13.30;99.90;;;;;;5041098;28;20381;-77
2023/08/29 04:12:08;;;;;;;0.00;0.00;;;13.20;99.90;;;;;;5048628;28;20052;-80
2023/08/29 04:14:34;;;;;;;0.00;0.00;;;13.20;99.90;;;;;;5046158;28;20021;-76
2023/08/29 04:17:00;;;;;;;0.00;0.00;;;13.20;99.90;;;;;;5045315;28;20575;-76
2023/08/29 04:19:26;;;;;;;0.00;0.00;;;13.20;99.90;;;;;;5044588;28;20040;-76
2023/08/29 04:21:52;;;;;;;0.00;0.00;;;13.10;99.90;;;;;;5046072;28;20629;-78
2023/08/29 04:24:17;;;;;;;0.30;0.30;;;13.20;99.90;;;;;;5045907;28;20032;-77
2023/08/29 04:26:43;;;;;;;0.00;0.00;;;13.20;99.90;;;;;;5045816;28;20975;-77
2023/08/29 04:29:09;;;;;;;0.10;0.10;;;13.20;99.90;;;;;;5045766;28;20036;-75
2023/08/29 04:31:34;;;;;;;0.10;0.10;;;13.20;99.90;;;;;;5045449;28;20051;-76
2023/08/29 04:34:01;;;;;;;0.10;0.10;;;13.10;99.90;;;;;;5043722;28;20081;-74
2023/08/29 04:36:27;;;;;;;2.00;1.85;;;13.20;99.90;;;;;;5046138;28;20040;-75
2023/08/29 04:38:53;;;;;;;0.00;0.00;;;13.10;99.90;;;;;;5044666;28;20029;-74
2023/08/29 04:41:19;;;;;;;0.10;0.10;;;13.00;99.90;;;;;;5051811;28;20636;-75
2023/08/29 04:43:45;;;;;;;0.20;0.20;;;13.00;99.90;;;;;;5045722;28;20036;-75
2023/08/29 04:46:11;;;;;;;0.00;0.00;;;12.90;99.90;;;;;;5044245;28;20063;-73
2023/08/29 04:48:37;;;;;;;0.05;0.05;;;12.80;99.90;;;;;;5045648;28;20554;-74
2023/08/29 04:51:06;;;;;;;0.10;0.10;;;12.70;99.90;;;;;;5044617;28;20059;-76
2023/08/29 04:53:32;;;;;;;0.10;0.10;;;12.70;99.90;;;;;;5048962;28;20056;-74
2023/08/29 04:56:03;;;;;;;0.00;0.00;;;12.80;99.90;;;;;;5048865;28;20028;-75
2023/08/29 04:58:32;;;;;;;0.10;0.10;;;13.00;99.90;;;;;;5043472;28;20060;-76
2023/08/29 05:00:58;;;;;;;0.00;0.00;;;13.10;99.90;;;;;;5043374;28;20044;-74
2023/08/29 05:03:24;;;;;;;0.10;0.10;;;12.80;99.90;;;;;;5043701;28;20021;-73
2023/08/29 05:05:51;;;;;;;0.10;0.10;;;13.00;99.90;;;;;;5045639;28;20398;-73
2023/08/29 05:08:17;;;;;;;0.00;0.00;;;13.10;99.90;;;;;;5044919;28;20567;-73
2023/08/29 05:10:43;;;;;;;0.05;0.05;;;13.20;99.90;;;;;;5041100;28;20044;-76
2023/08/29 05:13:09;;;;;;;0.10;0.10;;;13.20;99.90;;;;;;5041431;28;20059;-73
2023/08/29 05:15:35;;;;;;;0.07;0.07;;;13.30;99.90;;;;;;5037365;28;20122;-75
2023/08/29 05:18:01;;;;;;;0.07;0.07;;;13.10;99.90;;;;;;5039405;28;20029;-74
2023/08/29 05:20:27;;;;;;;0.00;0.00;;;13.00;99.90;;;;;;5044158;28;20057;-75
2023/08/29 05:22:52;;;;;;;0.00;0.00;;;13.10;99.90;;;;;;5037994;28;20098;-74
2023/08/29 05:25:18;;;;;;;0.10;0.10;;;13.30;99.90;;;;;;5042030;28;20531;-74
2023/08/29 05:27:44;;;;;;;0.03;0.03;;;13.30;99.90;;;;;;5044166;28;20047;-76
2023/08/29 05:30:10;;;;;;;0.00;0.00;;;13.30;99.90;;;;;;5044234;28;20032;-74
2023/08/29 05:32:38;;;;;;;0.20;0.20;;;13.30;99.90;;;;;;5044575;28;20051;-77
2023/08/29 05:35:05;;;;;;;0.00;0.00;;;13.40;99.90;;;;;;5044461;28;20057;-74
2023/08/29 05:37:30;;;;;;;0.00;0.00;;;13.30;99.90;;;;;;5044530;28;20099;-74
2023/08/29 05:39:56;;;;;;;0.00;0.00;;;13.10;99.90;;;;;;5043380;28;20539;-74
2023/08/29 05:42:22;;;;;;;0.00;0.00;;;13.20;99.90;;;;;;5035527;28;20534;-75
2023/08/29 05:44:47;;;;;;;0.00;0.00;;;13.50;99.90;;;;;;5041911;28;20036;-74
2023/08/29 05:47:13;;;;;;;0.00;0.00;;;13.70;99.90;;;;;;5041334;28;20027;-74
2023/08/29 05:49:39;;;;;;;0.00;0.00;;;13.80;99.90;;;;;;5032809;28;20052;-75
2023/08/29 05:52:05;;;;;;;0.00;0.00;;;13.80;99.90;;;;;;5042340;28;20793;-74
2023/08/29 05:54:31;;;;;;;0.00;0.00;;;13.80;99.90;;;;;;5042259;28;20039;-73
2023/08/29 05:56:57;;;;;;;0.13;0.13;;;13.80;99.90;;;;;;5042794;28;20383;-73
2023/08/29 05:59:22;;;;;;;0.00;0.00;;;13.80;99.90;;;;;;5042904;28;20525;-73
2023/08/29 06:01:48;;;;;;;0.00;0.00;;;13.90;99.90;;;;;;5042730;28;20051;-73
2023/08/29 06:04:14;;;;;;;0.00;0.00;;;14.00;99.90;;;;;;5040143;28;20033;-73
2023/08/29 06:06:40;;;;;;;0.00;0.00;;;14.10;99.90;;;;;;5040755;28;20053;-73
2023/08/29 06:09:08;;;;;;;0.00;0.00;;;14.30;99.90;;;;;;5040776;28;20050;-74
2023/08/29 06:11:34;;;;;;;0.00;0.00;;;14.40;99.90;;;;;;5042139;28;20072;-74
2023/08/29 06:14:01;;;;;;;0.00;0.00;;;14.50;99.90;;;;;;5039049;28;20029;-73
2023/08/29 06:16:27;;;;;;;0.00;0.00;;;14.50;99.90;;;;;;5041105;28;20039;-75
2023/08/29 06:18:52;;;;;;;0.00;0.00;;;14.60;99.90;;;;;;5051870;28;20391;-73
2023/08/29 06:21:19;;;;;;;0.00;0.00;;;14.70;99.90;;;;;;5041790;28;20428;-73
2023/08/29 06:23:45;;;;;;;0.00;0.00;;;14.90;99.90;;;;;;5041144;28;20028;-75
2023/08/29 06:26:10;;;;;;;0.00;0.00;;;15.10;99.90;;;;;;5041552;28;20033;-75
2023/08/29 06:28:37;;;;;;;0.00;0.00;;;15.10;99.90;;;;;;5039371;28;20029;-76
2023/08/29 06:31:08;;;;;;;0.00;0.00;;;15.30;99.90;;;;;;5038323;28;20060;-74
2023/08/29 06:33:35;;;;;;;0.00;0.00;;;15.80;99.90;;;;;;5038332;28;20168;-76
2023/08/29 06:36:00;;;;;;;0.00;0.00;;;16.20;99.90;;;;;;5039392;28;20044;-74
2023/08/29 06:38:26;;;;;;;0.00;0.00;;;16.70;99.90;;;;;;5039394;28;20025;-75
2023/08/29 06:40:56;;;;;;;0.00;0.00;;;17.10;99.90;;;;;;5034122;28;20500;-74
2023/08/29 06:43:23;;;;;;;0.00;0.00;;;17.20;99.90;;;;;;5043408;28;20872;-76
2023/08/29 06:45:48;;;;;;;;;;;16.30;99.90;;;;;;5044142;28;20021;-73
2023/08/29 06:48:14;;;;;;;0.00;0.00;;;15.70;99.90;;;;;;5043267;28;19916;-74
2023/08/29 06:50:40;;;;;;;0.40;0.40;;;15.50;99.90;;;;;;5043633;28;20291;-73
2023/08/29 06:53:06;;;;;;;0.00;0.00;;;15.40;99.90;;;;;;5037634;28;20037;-76
2023/08/29 06:55:34;;;;;;;0.00;0.00;;;15.50;99.90;;;;;;5041912;28;20095;-76
2023/08/29 06:58:00;;;;;;;0.00;0.00;;;15.60;99.90;;;;;;5038263;28;20761;-75
2023/08/29 07:00:26;;;;;;;0.00;0.00;;;15.60;99.90;;;;;;5043792;28;20083;-75
2023/08/29 07:02:52;;;;;;;0.10;0.10;;;15.70;99.90;;;;;;5042862;28;20548;-77
2023/08/29 07:05:18;;;;;;;0.00;0.00;;;15.80;99.90;;;;;;5043585;28;20466;-75
2023/08/29 07:07:43;;;;;;;0.00;0.00;;;15.70;99.90;;;;;;5043682;28;20032;-74
2023/08/29 07:10:10;;;;;;;0.00;0.00;;;15.70;99.90;;;;;;5043916;28;20449;-75
2023/08/29 07:12:36;;;;;;;0.28;0.28;;;15.60;99.90;;;;;;5043145;28;20567;-74
2023/08/29 07:15:02;;;;;;;0.00;0.00;;;15.80;99.90;;;;;;5043584;28;20029;-75
2023/08/29 07:17:28;;;;;;;0.27;0.27;;;16.00;99.90;;;;;;5041924;28;20025;-75
2023/08/29 07:19:54;;;;;;;0.32;0.32;;;15.40;99.90;;;;;;5043456;28;20108;-76
2023/08/29 07:22:19;;;;;;;0.00;0.00;;;15.30;99.90;;;;;;5043182;28;20037;-75
2023/08/29 07:24:45;;;;;;;0.10;0.10;;;15.30;99.90;;;;;;5043388;28;20758;-73
2023/08/29 07:27:11;;;;;;;0.10;0.10;;;15.00;99.90;;;;;;5041138;28;20543;-76
2023/08/29 07:29:37;;;;;;;0.00;0.00;;;15.30;99.90;;;;;;5042775;28;20029;-73
2023/08/29 07:32:02;;;;;;;0.00;0.00;;;15.70;99.90;;;;;;5044848;28;20562;-73
2023/08/29 07:34:28;;;;;;;1.50;1.40;;;15.70;99.90;;;;;;5047770;28;20104;-74
2023/08/29 07:36:54;;;;;;;0.00;0.00;;;15.80;99.90;;;;;;5042947;28;20032;-76
2023/08/29 07:39:22;;;;;;;0.00;0.00;;;16.00;99.90;;;;;;5038481;28;20029;-76
2023/08/29 07:41:47;;;;;;;0.00;0.00;;;15.80;99.90;;;;;;5042559;28;20559;-73
2023/08/29 07:44:13;;;;;;;0.10;0.10;;;15.80;99.90;;;;;;5043436;28;20083;-72
2023/08/29 07:46:39;;;;;;;0.00;0.00;;;15.90;99.90;;;;;;5041823;28;20021;-76
2023/08/29 07:49:13;;;;;;;0.00;0.00;;;16.00;99.90;;;;;;5043162;28;20035;-73
2023/08/29 07:51:42;;;;;;;0.00;0.00;;;16.10;99.90;;;;;;5040853;28;20036;-73
2023/08/29 07:54:08;;;;;;;0.20;0.20;;;16.40;99.90;;;;;;5042625;28;20128;-76
2023/08/29 07:56:33;;;;;;;0.00;0.00;;;16.30;99.90;;;;;;5043147;28;20017;-75
2023/08/29 07:58:59;;;;;;;0.10;0.10;;;16.30;99.90;;;;;;5043023;28;20099;-74
2023/08/29 08:01:25;;;;;;;0.00;0.00;;;16.90;99.90;;;;;;5042720;28;20878;-73
2023/08/29 08:03:50;;;;;;;0.00;0.00;;;17.90;99.90;;;;;;5042783;28;20025;-74
2023/08/29 08:06:16;;;;;;;0.00;0.00;;;17.70;99.90;;;;;;5042913;28;20025;-75
2023/08/29 08:08:42;;;;;;;0.00;0.00;;;17.10;99.90;;;;;;5038885;28;20392;-76
2023/08/29 08:11:08;;;;;;;0.00;0.00;;;16.90;99.90;;;;;;5042883;28;20032;-74
2023/08/29 08:13:34;;;;;;;0.00;0.00;;;17.20;99.90;;;;;;5042281;28;20566;-76
2023/08/29 08:16:00;;;;;;;0.00;0.00;;;17.00;99.90;;;;;;5042763;28;20037;-77
2023/08/29 08:18:25;;;;;;;0.00;0.00;;;16.70;99.90;;;;;;5042509;28;20033;-78
2023/08/29 08:20:51;;;;;;;0.00;0.00;;;16.80;99.90;;;;;;5043396;28;20377;-74
2023/08/29 08:23:17;;;;;;;0.00;0.00;;;17.10;99.90;;;;;;5042702;28;20029;-77
2023/08/29 08:25:44;;;;;;;0.00;0.00;;;17.30;99.90;;;;;;5042518;28;20033;-74
2023/08/29 08:28:10;;;;;;;0.00;0.00;;;17.10;99.90;;;;;;5042163;28;20029;-76
2023/08/29 08:30:37;;;;;;;0.00;0.00;;;16.90;99.90;;;;;;5043299;28;20098;-75
2023/08/29 08:33:05;;;;;;;0.00;0.00;;;16.80;99.90;;;;;;5042731;28;20416;-75
2023/08/29 08:35:31;;;;;;;0.00;0.00;;;16.90;99.90;;;;;;5041242;28;20782;-73
2023/08/29 08:37:56;;;;;;;0.00;0.00;;;16.80;99.90;;;;;;5042784;28;20017;-75
2023/08/29 08:40:22;;;;;;;0.00;0.00;;;16.70;99.90;;;;;;5042685;28;20032;-76
2023/08/29 08:42:48;;;;;;;0.00;0.00;;;16.70;99.90;;;;;;5036673;28;20028;-75
2023/08/29 08:45:14;;;;;;;0.00;0.00;;;17.00;99.90;;;;;;5040568;28;20120;-74
2023/08/29 08:47:40;;;;;;;0.65;0.65;;;17.90;99.90;;;;;;5036856;28;20031;-74
2023/08/29 08:50:08;;;;;;;0.00;0.00;;;18.40;99.90;;;;;;5041984;28;20079;-74
2023/08/29 08:52:34;;;;;;;0.00;0.00;;;19.10;99.90;;;;;;5042243;28;20037;-74
2023/08/29 08:55:00;;;;;;;0.00;0.00;;;20.20;98.80;;;;;;5042364;28;20104;-74
2023/08/29 08:57:26;;;;;;;0.00;0.00;;;19.90;99.90;;;;;;5042007;28;20838;-74
2023/08/29 08:59:52;;;;;;;6.77;2.23;;;21.20;99.40;;;;;;5045567;28;20037;-75
2023/08/29 09:02:18;;;;;;;0.00;0.00;;;20.60;97.30;;;;;;5045097;28;20032;-76
2023/08/29 09:04:44;;;;;;;0.00;0.00;;;20.30;97.30;;;;;;5044401;28;20033;-74
2023/08/29 09:07:09;;;;;;;0.22;0.22;;;20.20;97.90;;;;;;5045940;28;20040;-75
2023/08/29 09:09:35;;;;;;;0.00;0.00;;;24.30;92.30;;;;;;5045907;28;20044;-73
2023/08/29 09:12:01;;;;;;;0.00;0.00;;;25.80;87.40;;;;;;5045285;28;20499;-73
2023/08/29 09:14:27;;;;;;;0.00;0.00;;;26.80;84.60;;;;;;5044012;28;20506;-78
2023/08/29 09:16:58;;;;;;;0.00;0.00;;;25.10;88.00;;;;;;5045383;28;20604;-73
2023/08/29 09:19:24;;;;;;;0.00;0.00;;;23.20;87.30;;;;;;5043774;28;20037;-73
2023/08/29 09:21:51;;;;;;;0.00;0.00;;;22.30;93.60;;;;;;5043816;28;20112;-74
2023/08/29 09:24:33;;;;;;;0.00;0.00;;;21.80;93.80;;;;;;5043606;28;20416;-75
2023/08/29 09:26:58;;;;;;;0.00;0.00;;;22.00;94.50;;;;;;5045413;28;20122;-75
2023/08/29 09:29:25;;;;;;;0.00;0.00;;;23.70;90.10;;;;;;5045298;28;20510;-75
2023/08/29 09:31:50;;;;;;;0.00;0.00;;;22.80;89.70;;;;;;5044704;28;20044;-75
2023/08/29 09:34:42;;;;;;;0.00;0.00;;;22.40;92.70;;;;;;5043716;28;20060;-75
2023/08/29 09:37:11;;;;;;;0.00;0.00;;;21.50;93.80;;;;;;5041920;28;20036;-73
2023/08/29 09:39:37;;;;;;;0.00;0.00;;;20.90;93.50;;;;;;5041017;28;20424;-75
2023/08/29 09:42:03;;;;;;;0.00;0.00;;;21.10;94.40;;;;;;5044942;28;20510;-73
2023/08/29 09:44:33;;;;;;;0.00;0.00;;;21.40;93.20;;;;;;5045600;28;20029;-76
2023/08/29 09:46:59;;;;;;;0.00;0.00;;;20.90;93.60;;;;;;5043027;28;20047;-78
2023/08/29 09:49:43;;;;;;;0.00;0.00;;;20.60;94.10;;;;;;5044879;28;20503;-76
2023/08/29 09:52:10;;;;;;;0.00;0.00;;;20.50;94.70;;;;;;5043304;28;20128;-76
2023/08/29 09:54:41;;;;;;;0.00;0.00;;;21.40;91.50;;;;;;5045132;28;20017;-77
2023/08/29 09:57:08;;;;;;;0.65;0.47;;;21.10;92.90;;;;;;5044852;28;20040;-77
2023/08/29 09:59:39;;;;;;;0.00;0.00;;;21.00;93.90;;;;;;5045215;28;20108;-75
2023/08/29 10:02:06;;;;;;;0.00;0.00;;;20.60;94.30;;;;;;5041803;28;20456;-75
2023/08/29 10:04:36;;;;;;;0.00;0.00;;;20.50;94.50;;;;;;5041067;28;20023;-75
2023/08/29 10:07:02;;;;;;;0.00;0.00;;;20.00;94.50;;;;;;5045310;28;20090;-73
2023/08/29 10:09:30;;;;;;;0.00;0.00;;;20.10;95.10;;;;;;5044664;28;20087;-78
2023/08/29 10:11:56;;;;;;;0.00;0.00;;;20.20;95.60;;;;;;5048648;28;20045;-76
2023/08/29 10:14:22;;;;;;;;;;;20.10;95.10;;;;;;5046135;28;20017;-75
2023/08/29 10:16:49;;;;;;;0.00;0.00;;;20.70;95.40;;;;;;5043185;28;19909;-76
2023/08/29 10:19:16;;;;;;;0.00;0.00;;;20.80;94.60;;;;;;5045271;28;20090;-73
2023/08/29 10:21:42;;;;;;;;;;;21.80;93.60;;;;;;5045865;28;20024;-72
2023/08/29 10:24:11;;;;;;;;;;;22.40;91.80;;;;;;5044949;28;20669;-76
2023/08/29 10:26:37;;;;;;;0.00;0.00;;;23.50;92.40;;;;;;5043133;28;19909;-74
2023/08/29 10:29:05;;;;;;;0.00;0.00;;;23.80;91.70;;;;;;5044237;28;20029;-74
2023/08/29 10:31:34;;;;;;;0.00;0.00;;;23.80;92.00;;;;;;5043974;28;20488;-72
2023/08/29 10:34:03;;;;;;;0.00;0.00;;;24.20;92.10;;;;;;5044075;28;20049;-75
2023/08/29 10:36:29;;;;;;;0.00;0.00;;;24.00;89.80;;;;;;5043955;28;20028;-78
2023/08/29 10:38:56;;;;;;;0.00;0.00;;;22.90;90.90;;;;;;5042364;28;20037;-77
2023/08/29 10:41:22;;;;;;;0.00;0.00;;;22.20;90.10;;;;;;5036657;28;20476;-77
2023/08/29 10:43:52;;;;;;;0.00;0.00;;;21.90;91.80;;;;;;5043785;28;20112;-75
2023/08/29 10:46:20;;;;;;;0.00;0.00;;;21.60;91.30;;;;;;5044071;28;20033;-76
2023/08/29 10:48:48;;;;;;;0.00;0.00;;;21.40;91.80;;;;;;5043649;28;20097;-72
2023/08/29 10:51:16;;;;;;;0.00;0.00;;;21.40;92.30;;;;;;5043082;28;20507;-73
2023/08/29 10:53:51;;;;;;;0.75;0.43;;;21.30;92.10;;;;;;5043369;28;20060;-73
2023/08/29 10:56:19;;;;;;;0.05;0.05;;;21.70;93.10;;;;;;5043557;28;20030;-73
2023/08/29 10:58:47;;;;;;;0.00;0.00;;;21.60;91.40;;;;;;5043790;28;20120;-76
2023/08/29 11:01:28;;;;;;;0.00;0.00;;;21.40;91.90;;;;;;5043527;28;20380;-73
2023/08/29 11:04:15;;;;;;;0.55;0.43;;;21.00;92.90;;;;;;5043047;28;20032;-73
2023/08/29 11:06:53;;;;;;;0.20;0.20;;;20.90;93.40;;;;;;5038710;28;20021;-73
2023/08/29 11:09:23;;;;;;;0.00;0.00;;;20.60;93.50;;;;;;5043665;28;20393;-76
2023/08/29 11:12:15;;;;;;;0.00;0.00;;;20.80;93.80;;;;;;5042845;28;20120;-74
2023/08/29 11:14:59;;;;;;;0.00;0.00;;;20.80;93.50;;;;;;5048443;28;20032;-72
2023/08/29 11:17:25;;;;;;;0.00;0.00;;;21.20;93.80;;;;;;5043525;28;20651;-76
2023/08/29 11:19:55;;;;;;;0.00;0.00;;;21.50;92.30;;;;;;5043216;28;20479;-72
2023/08/29 11:22:29;;;;;;;0.00;0.00;;;21.90;90.20;;;;;;5043373;28;20033;-74
2023/08/29 11:24:56;;;;;;;0.00;0.00;;;22.40;91.40;;;;;;5033902;28;20120;-74
2023/08/29 11:27:25;;;;;;;0.00;0.00;;;22.50;89.70;;;;;;5042794;28;20381;-73
2023/08/29 11:29:52;;;;;;;0.00;0.00;;;21.90;88.30;;;;;;5041303;28;20029;-73
2023/08/29 11:32:19;;;;;;;0.00;0.00;;;21.70;87.60;;;;;;5042354;28;20045;-74
2023/08/29 11:34:46;;;;;;;;;;;21.70;89.90;;;;;;5039431;28;20049;-73
2023/08/29 11:37:11;;;;;;;0.00;0.00;;;22.20;89.60;;;;;;5041793;28;20303;-73
2023/08/29 11:39:37;;;;;;;0.07;0.07;;;21.90;90.60;;;;;;5038968;28;20029;-73
2023/08/29 11:42:04;;;;;;;0.00;0.00;;;21.30;90.40;;;;;;5042039;28;20028;-73
2023/08/29 11:44:33;;;;;;;0.00;0.00;;;20.70;91.70;;;;;;5042612;28;20033;-74
2023/08/29 11:46:59;;;;;;;0.45;0.25;;;20.80;90.60;;;;;;5040687;28;20040;-73
2023/08/29 11:49:25;;;;;;;0.00;0.00;;;21.10;91.80;;;;;;5042657;28;20025;-74
2023/08/29 11:51:51;;;;;;;0.00;0.00;;;21.10;90.30;;;;;;5041666;28;20123;-72
2023/08/29 11:54:54;;;;;;;0.00;0.00;;;20.70;91.30;;;;;;5035903;28;20082;-74
2023/08/29 11:57:19;;;;;;;0.00;0.00;;;20.30;92.80;;;;;;5035254;28;20107;-73
2023/08/29 11:59:47;;;;;;;0.00;0.00;;;20.00;93.20;;;;;;5042365;28;20043;-73
2023/08/29 12:02:17;;;;;;;0.00;0.00;;;19.70;92.70;;;;;;5040553;28;20029;-73
2023/08/29 12:04:47;;;;;;;0.00;0.00;;;19.50;93.80;;;;;;5039276;28;20102;-75
2023/08/29 12:07:15;;;;;;;0.00;0.00;;;19.40;93.10;;;;;;5042849;28;20021;-73
2023/08/29 12:09:42;;;;;;;0.00;0.00;;;19.80;93.80;;;;;;5041836;28;20032;-72
2023/08/29 12:12:26;;;;;;;0.10;0.10;;;20.30;93.30;;;;;;5042908;28;20041;-73
2023/08/29 12:14:52;;;;;;;0.00;0.00;;;20.40;92.20;;;;;;5042579;28;20496;-74
2023/08/29 12:17:19;;;;;;;0.47;0.47;;;20.70;92.10;;;;;;5036646;28;20049;-74
2023/08/29 12:19:45;;;;;;;0.00;0.00;;;20.90;90.90;;;;;;5044445;28;20039;-75
2023/08/29 12:22:11;;;;;;;0.00;0.00;;;21.30;91.50;;;;;;5042666;28;20056;-76
2023/08/29 12:24:37;;;;;;;0.00;0.00;;;21.50;90.40;;;;;;5042829;28;20130;-74
2023/08/29 12:27:04;;;;;;;0.00;0.00;;;21.50;90.20;;;;;;5040030;28;20536;-73
2023/08/29 12:29:31;;;;;;;0.00;0.00;;;21.60;89.30;;;;;;5041135;28;20794;-73
2023/08/29 12:31:57;;;;;;;0.00;0.00;;;21.50;86.10;;;;;;5037430;28;20044;-74
2023/08/29 12:34:23;;;;;;;0.00;0.00;;;21.60;87.20;;;;;;5052469;28;20049;-74
2023/08/29 12:36:49;;;;;;;0.00;0.00;;;21.90;85.10;;;;;;5046131;28;20033;-73
2023/08/29 12:39:14;;;;;;;0.00;0.00;;;22.20;85.10;;;;;;5042592;28;20267;-74
2023/08/29 12:41:41;;;;;;;0.00;0.00;;;22.20;83.30;;;;;;5044920;28;20041;-74
2023/08/29 12:44:07;;;;;;;0.00;0.00;;;22.40;85.80;;;;;;5050525;28;20029;-76
2023/08/29 12:46:34;;;;;;;0.10;0.10;;;22.20;85.30;;;;;;5046187;28;20029;-73
2023/08/29 12:49:03;;;;;;;0.00;0.00;;;21.80;87.40;;;;;;5044987;28;20025;-75